createdAt,value
2022-10-01T00:25:40.838Z,21.99
2022-10-01T02:05:39.643Z,21.96
2022-10-01T02:25:40.201Z,21.96
2022-10-01T02:45:39.963Z,21.96
2022-10-01T03:05:40.536Z,21.96
2022-10-01T03:25:40.515Z,21.96
2022-10-01T03:45:40.638Z,21.95
2022-10-01T04:05:40.602Z,21.95
2022-10-01T04:25:40.447Z,21.95
2022-10-01T04:45:40.563Z,21.93
2022-10-01T05:05:39.772Z,21.94
2022-10-01T05:25:40.524Z,21.93
2022-10-01T05:45:40.535Z,21.93
2022-10-01T06:05:40.503Z,21.92
2022-10-01T06:25:40.341Z,21.91
2022-10-01T06:45:40.582Z,21.91
2022-10-01T07:05:40.433Z,21.9
2022-10-01T07:25:40.403Z,21.9
2022-10-01T07:45:40.411Z,21.9
2022-10-01T08:05:40.370Z,21.89
2022-10-01T08:25:40.329Z,21.87
2022-10-01T08:45:40.381Z,21.87
2022-10-01T09:05:40.292Z,21.87
2022-10-01T09:25:40.133Z,21.88
2022-10-01T10:05:40.221Z,21.86
2022-10-01T10:25:40.196Z,21.85
2022-10-01T10:45:39.643Z,21.85
2022-10-01T11:05:40.135Z,21.85
2022-10-01T11:25:40.105Z,21.84
2022-10-01T12:25:40.025Z,22.79
2022-10-01T12:45:40.003Z,27.79
2022-10-01T13:05:39.850Z,28.9
2022-10-01T13:45:39.923Z,28.92
2022-10-01T14:05:39.892Z,28.86
2022-10-01T14:25:39.852Z,28.72
2022-10-01T14:45:39.851Z,28.56
2022-10-01T15:05:39.799Z,28.46
2022-10-01T15:25:39.761Z,28.31
2022-10-01T15:45:39.779Z,28.17
2022-10-01T16:05:39.694Z,28.06
2022-10-01T16:25:39.671Z,27.92
2022-10-01T16:45:39.669Z,27.79
2022-10-01T17:05:39.660Z,27.66
2022-10-01T17:25:39.463Z,27.56
2022-10-01T17:45:39.476Z,27.48
2022-10-01T18:25:39.524Z,27.28
2022-10-01T18:45:39.567Z,27.22
2022-10-01T19:05:38.958Z,27.14
2022-10-01T19:25:39.460Z,27.1
2022-10-01T19:45:39.430Z,27.02
2022-10-01T20:25:39.389Z,26.9
2022-10-01T22:25:39.278Z,26.6
2022-10-01T22:45:39.308Z,26.52
2022-10-01T23:25:39.219Z,26.44
2022-10-01T23:45:38.588Z,26.38
